Time;durP1;ratioP1;P1;durP2;ratioP2;P2;SDS_P1;SDS_P2;PMS_P1;PMS_P2;Temp;Humidity;BMP_temperature;BMP_pressure;BME280_temperature;BME280_humidity;BME280_pressure;Samples;Min_cycle;Max_cycle;Signal;HPM_P1;HPM_P2
2022/02/13 00:00:54;;;;;;;16.10;10.47;;;;;;;-3.61;100.00;101661.16;5037730;28;20489;-73
2022/02/13 00:03:20;;;;;;;20.63;10.63;;;;;;;-3.64;100.00;101649.16;5044384;28;20453;-74
2022/02/13 00:05:47;;;;;;;18.40;9.40;;;;;;;-3.67;100.00;101648.13;5042791;28;20534;-74
2022/02/13 00:08:13;;;;;;;16.80;9.57;;;;;;;-3.68;100.00;101648.91;5039498;28;20463;-74
2022/02/13 00:10:40;;;;;;;15.40;9.60;;;;;;;-3.73;100.00;101635.97;5040236;28;20480;-74
2022/02/13 00:13:08;;;;;;;17.70;10.57;;;;;;;-3.69;100.00;101642.97;5041977;28;20456;-74
2022/02/13 00:15:35;;;;;;;17.17;8.87;;;;;;;-3.74;100.00;101634.22;5044703;28;20452;-74
2022/02/13 00:18:01;;;;;;;17.47;10.13;;;;;;;-3.75;100.00;101629.91;5045325;28;20455;-74
2022/02/13 00:20:28;;;;;;;17.50;9.50;;;;;;;-3.75;100.00;101629.03;5041827;28;20477;-75
2022/02/13 00:22:55;;;;;;;16.67;9.73;;;;;;;-3.79;100.00;101634.81;5049984;28;20552;-74
2022/02/13 00:25:21;;;;;;;17.13;9.40;;;;;;;-3.76;100.00;101628.19;5044349;28;20474;-74
2022/02/13 00:27:48;;;;;;;17.17;9.37;;;;;;;-3.84;100.00;101620.13;5043343;28;20461;-74
2022/02/13 00:30:17;;;;;;;14.97;9.10;;;;;;;-3.81;100.00;101621.97;5044612;28;20972;-74
2022/02/13 00:32:45;;;;;;;14.17;8.67;;;;;;;-3.82;100.00;101617.66;5048532;28;21201;-74
2022/02/13 00:35:12;;;;;;;20.73;9.30;;;;;;;-3.83;100.00;101614.25;5045591;28;20446;-73
2022/02/13 00:37:40;;;;;;;15.13;9.03;;;;;;;-3.74;100.00;101613.81;5042272;28;20519;-74
2022/02/13 00:40:08;;;;;;;16.43;9.53;;;;;;;-3.80;100.00;101616.06;5045800;28;20477;-74
2022/02/13 00:42:35;;;;;;;14.03;9.13;;;;;;;-3.78;100.00;101614.50;5047563;28;20481;-74
2022/02/13 00:45:02;;;;;;;16.47;8.87;;;;;;;-3.74;100.00;101608.72;5042221;28;20473;-74
2022/02/13 00:47:30;;;;;;;17.37;8.97;;;;;;;-3.81;100.00;101607.56;5046856;28;20460;-74
2022/02/13 00:49:57;;;;;;;15.93;9.13;;;;;;;-3.83;100.00;101606.63;5044057;28;20476;-73
2022/02/13 00:52:23;;;;;;;17.07;9.37;;;;;;;-3.87;100.00;101599.63;5046549;28;21070;-73
2022/02/13 00:54:49;;;;;;;14.87;8.77;;;;;;;-3.82;100.00;101603.28;5049555;28;20482;-74
2022/02/13 00:57:16;;;;;;;13.23;8.53;;;;;;;-3.81;100.00;101596.50;5042839;28;20471;-74
2022/02/13 00:59:43;;;;;;;15.33;8.87;;;;;;;-3.86;100.00;101597.94;5048658;28;20479;-74
2022/02/13 01:02:10;;;;;;;17.20;9.57;;;;;;;-3.74;100.00;101593.44;5042622;28;20530;-73
2022/02/13 01:04:37;;;;;;;14.83;8.90;;;;;;;-3.83;100.00;101586.22;5043629;28;20494;-74
2022/02/13 01:07:04;;;;;;;18.47;8.73;;;;;;;-3.85;100.00;101581.88;5039981;28;20452;-74
2022/02/13 01:09:31;;;;;;;14.40;9.03;;;;;;;-3.91;100.00;101581.56;5046419;28;20479;-74
2022/02/13 01:11:57;;;;;;;19.97;10.13;;;;;;;-3.84;100.00;101566.63;5043081;28;20464;-74
2022/02/13 01:14:23;;;;;;;12.97;8.13;;;;;;;-3.84;100.00;101570.84;5038817;28;20867;-74
2022/02/13 01:16:50;;;;;;;21.20;9.53;;;;;;;-3.82;100.00;101566.69;5043970;28;20577;-74
2022/02/13 01:19:16;;;;;;;15.63;8.70;;;;;;;-3.88;100.00;101561.31;5044673;28;20561;-73
2022/02/13 01:21:44;;;;;;;15.40;8.10;;;;;;;-3.81;100.00;101560.81;5043278;28;20455;-75
2022/02/13 01:24:11;;;;;;;14.80;8.50;;;;;;;-3.79;100.00;101558.34;5046405;28;20513;-74
2022/02/13 01:26:37;;;;;;;14.70;8.83;;;;;;;-3.82;100.00;101553.97;5047254;28;20462;-74
2022/02/13 01:29:03;;;;;;;16.63;8.90;;;;;;;-3.85;100.00;101558.94;5044303;28;20479;-74
2022/02/13 01:31:30;;;;;;;15.10;8.57;;;;;;;-3.90;100.00;101551.06;5042908;28;20455;-73
2022/02/13 01:33:56;;;;;;;13.80;8.37;;;;;;;-3.82;100.00;101548.84;5045721;28;20460;-74
2022/02/13 01:36:23;;;;;;;12.63;7.93;;;;;;;-3.78;100.00;101545.69;5044034;28;20446;-74
2022/02/13 01:38:50;;;;;;;15.73;8.17;;;;;;;-3.80;100.00;101537.06;5046977;28;20462;-74
2022/02/13 01:41:18;;;;;;;16.37;8.63;;;;;;;-3.80;100.00;101539.59;5048304;28;21542;-73
2022/02/13 01:43:45;;;;;;;14.57;8.47;;;;;;;-3.78;100.00;101539.69;5045055;28;20459;-74
2022/02/13 01:46:11;;;;;;;16.63;8.70;;;;;;;-3.78;100.00;101538.03;5047399;28;20475;-74
2022/02/13 01:48:38;;;;;;;19.87;9.40;;;;;;;-3.83;100.00;101527.59;5045830;28;20455;-74
2022/02/13 01:51:05;;;;;;;15.60;8.13;;;;;;;-3.83;100.00;101527.59;5046017;28;20455;-74
2022/02/13 01:53:32;;;;;;;15.03;8.40;;;;;;;-3.82;100.00;101524.28;5045300;28;21081;-73
2022/02/13 01:56:01;;;;;;;14.23;9.03;;;;;;;-3.72;100.00;101517.91;5037248;28;20452;-73
2022/02/13 01:58:27;;;;;;;16.03;9.37;;;;;;;-3.83;100.00;101521.66;5045461;28;20496;-74
2022/02/13 02:00:54;;;;;;;15.03;8.97;;;;;;;-3.93;100.00;101509.28;5044593;28;20485;-74
2022/02/13 02:03:21;;;;;;;16.53;9.50;;;;;;;-3.93;100.00;101514.38;5044952;28;20455;-74
2022/02/13 02:05:47;;;;;;;15.83;8.63;;;;;;;-3.97;100.00;101489.53;5044103;28;20482;-74
2022/02/13 02:08:14;;;;;;;14.87;8.43;;;;;;;-3.91;100.00;101498.34;5044673;28;20557;-74
2022/02/13 02:10:42;;;;;;;15.53;9.00;;;;;;;-3.85;100.00;101507.97;5043960;28;20484;-74
2022/02/13 02:13:13;;;;;;;18.97;10.20;;;;;;;-3.84;100.00;101502.91;5042579;28;20450;-74
2022/02/13 02:15:39;;;;;;;14.73;9.23;;;;;;;-3.77;100.00;101498.13;5044489;28;20453;-74
2022/02/13 02:18:07;;;;;;;21.37;9.47;;;;;;;-3.77;100.00;101498.97;5046884;28;20594;-74
2022/02/13 02:20:33;;;;;;;19.67;9.50;;;;;;;-3.67;100.00;101490.97;5044034;28;20480;-75
2022/02/13 02:23:01;;;;;;;17.00;9.20;;;;;;;-3.60;100.00;101478.50;5042873;28;20463;-74
2022/02/13 02:25:27;;;;;;;15.90;9.83;;;;;;;-3.56;100.00;101467.63;5041663;28;20913;-74
2022/02/13 02:27:54;;;;;;;20.70;10.27;;;;;;;-3.48;100.00;101467.16;5041284;28;20458;-74
2022/02/13 02:30:20;;;;;;;19.80;9.87;;;;;;;-3.40;100.00;101453.88;5045525;28;20481;-74
2022/02/13 02:32:46;;;;;;;18.80;11.00;;;;;;;-3.34;100.00;101451.59;5042083;28;20459;-74
2022/02/13 02:35:13;;;;;;;20.30;10.13;;;;;;;-3.27;100.00;101453.63;5043353;28;20452;-74
2022/02/13 02:37:39;;;;;;;25.97;11.07;;;;;;;-3.22;100.00;101454.66;5040603;28;21010;-74
2022/02/13 02:40:09;;;;;;;22.83;10.90;;;;;;;-3.17;100.00;101449.78;5035967;28;20780;-74
2022/02/13 02:42:36;;;;;;;19.53;11.33;;;;;;;-3.22;100.00;101458.91;5039354;28;20460;-74
2022/02/13 02:45:03;;;;;;;22.93;10.70;;;;;;;-3.12;100.00;101455.94;5043447;28;21012;-74
2022/02/13 02:47:29;;;;;;;20.37;10.90;;;;;;;-3.11;100.00;101450.91;5043101;28;20439;-74
2022/02/13 02:49:56;;;;;;;20.70;11.77;;;;;;;-3.07;100.00;101457.03;5041839;28;20474;-74
2022/02/13 02:52:22;;;;;;;22.63;10.93;;;;;;;-3.05;100.00;101455.41;5047493;28;20466;-74
2022/02/13 02:54:48;;;;;;;26.00;11.60;;;;;;;-3.03;100.00;101451.22;5042901;28;20830;-74
2022/02/13 02:57:16;;;;;;;20.60;10.63;;;;;;;-2.97;100.00;101456.59;5045046;28;20460;-74
2022/02/13 02:59:43;;;;;;;25.00;12.13;;;;;;;-2.92;100.00;101457.69;5038605;28;20494;-75
2022/02/13 03:02:09;;;;;;;19.87;11.37;;;;;;;-2.91;100.00;101454.28;5041498;28;20460;-74
2022/02/13 03:04:35;;;;;;;25.27;12.20;;;;;;;-2.93;100.00;101466.13;5042347;28;20458;-74
2022/02/13 03:07:02;;;;;;;22.27;11.07;;;;;;;-2.95;100.00;101461.78;5043586;28;20464;-74
2022/02/13 03:09:28;;;;;;;19.57;10.80;;;;;;;-2.97;100.00;101466.81;5037560;28;20485;-74
2022/02/13 03:11:55;;;;;;;22.23;10.73;;;;;;;-2.94;100.00;101466.06;5043287;28;20535;-74
2022/02/13 03:14:23;;;;;;;20.27;10.73;;;;;;;-3.00;100.00;101456.47;5037407;28;20471;-74
2022/02/13 03:16:49;;;;;;;22.00;11.27;;;;;;;-3.00;100.00;101458.16;5044554;28;20476;-74
2022/02/13 03:19:16;;;;;;;25.50;10.63;;;;;;;-3.03;100.00;101448.69;5040278;28;20539;-74
2022/02/13 03:21:42;;;;;;;20.50;10.33;;;;;;;-3.02;100.00;101445.34;5042915;28;20457;-74
2022/02/13 03:24:09;;;;;;;22.77;10.53;;;;;;;-2.99;100.00;101444.56;5045511;28;20464;-74
2022/02/13 03:26:36;;;;;;;19.53;10.17;;;;;;;-2.99;100.00;101442.03;5042014;28;20465;-74
2022/02/13 03:29:03;;;;;;;18.00;9.80;;;;;;;-2.94;100.00;101443.94;5044988;28;20472;-74
2022/02/13 03:31:31;;;;;;;18.33;10.53;;;;;;;-2.97;100.00;101454.06;5041125;28;20457;-75
2022/02/13 03:33:58;;;;;;;23.40;10.10;;;;;;;-2.97;100.00;101448.94;5042304;28;20461;-75
2022/02/13 03:36:25;;;;;;;20.70;10.37;;;;;;;-3.03;100.00;101450.38;5041705;28;20460;-75
2022/02/13 03:38:51;;;;;;;20.17;9.43;;;;;;;-3.02;100.00;101441.91;5041907;28;20460;-74
2022/02/13 03:41:18;;;;;;;18.07;9.13;;;;;;;-3.07;100.00;101440.03;5038307;28;20481;-75
2022/02/13 03:43:44;;;;;;;18.77;9.43;;;;;;;-3.07;100.00;101423.84;5040379;28;20459;-74
2022/02/13 03:46:10;;;;;;;19.03;9.73;;;;;;;-3.06;100.00;101426.47;5041671;28;20482;-74
2022/02/13 03:48:38;;;;;;;16.10;9.13;;;;;;;-3.05;100.00;101422.22;5044987;28;20460;-75
2022/02/13 03:51:05;;;;;;;17.83;8.87;;;;;;;-3.05;100.00;101427.34;5039884;28;20492;-75
2022/02/13 03:53:33;;;;;;;20.00;10.07;;;;;;;-3.02;100.00;101427.47;5040328;28;20457;-74
2022/02/13 03:56:00;;;;;;;14.80;8.33;;;;;;;-2.98;100.00;101416.56;5045469;28;20452;-74
2022/02/13 03:58:26;;;;;;;14.47;8.53;;;;;;;-2.98;100.00;101423.38;5047791;28;20467;-74
2022/02/13 04:00:53;;;;;;;18.17;9.30;;;;;;;-2.98;100.00;101421.69;5044440;28;20813;-74
2022/02/13 04:03:19;;;;;;;15.47;8.43;;;;;;;-2.98;100.00;101414.03;5043030;28;20478;-74
2022/02/13 04:05:47;;;;;;;15.13;8.20;;;;;;;-2.97;100.00;101415.78;5044765;28;20480;-74
2022/02/13 04:08:14;;;;;;;17.83;9.23;;;;;;;-2.94;100.00;101404.81;5046545;28;20669;-74
2022/02/13 04:10:40;;;;;;;18.50;8.77;;;;;;;-2.90;100.00;101402.47;5049562;28;20479;-74
2022/02/13 04:13:07;;;;;;;17.23;9.20;;;;;;;-2.89;100.00;101400.75;5038990;28;20460;-73
2022/02/13 04:15:34;;;;;;;22.07;9.80;;;;;;;-2.83;100.00;101400.13;5044105;28;20540;-74
2022/02/13 04:18:00;;;;;;;14.10;7.87;;;;;;;-2.80;100.00;101390.94;5040897;28;20506;-74
2022/02/13 04:20:26;;;;;;;17.93;8.97;;;;;;;-2.81;100.00;101396.84;5048576;28;20476;-73
2022/02/13 04:22:54;;;;;;;12.73;8.27;;;;;;;-2.78;100.00;101388.44;5044501;28;20463;-74
2022/02/13 04:25:21;;;;;;;20.00;8.43;;;;;;;-2.73;100.00;101398.00;5048764;28;21206;-73
2022/02/13 04:27:48;;;;;;;16.50;8.27;;;;;;;-2.67;100.00;101390.63;5044967;28;20476;-74
2022/02/13 04:30:14;;;;;;;14.40;8.43;;;;;;;-2.65;100.00;101389.81;5045687;28;20906;-74
2022/02/13 04:32:41;;;;;;;16.30;8.50;;;;;;;-2.65;100.00;101390.69;5048599;28;20463;-74
2022/02/13 04:35:08;;;;;;;13.83;8.17;;;;;;;-2.61;100.00;101381.47;5044392;28;20473;-74
2022/02/13 04:37:34;;;;;;;13.70;8.07;;;;;;;-2.55;100.00;101380.03;5042920;28;20463;-74
2022/02/13 04:40:02;;;;;;;14.93;8.40;;;;;;;-2.55;100.00;101369.81;5044576;28;20489;-74
2022/02/13 04:42:28;;;;;;;13.97;7.93;;;;;;;-2.58;100.00;101372.25;5043014;28;20472;-74
2022/02/13 04:44:55;;;;;;;11.53;7.80;;;;;;;-2.57;100.00;101368.00;5042362;28;20492;-74
2022/02/13 04:47:21;;;;;;;14.33;8.43;;;;;;;-2.50;100.00;101364.88;5048635;28;20449;-74
2022/02/13 04:49:47;;;;;;;12.07;7.27;;;;;;;-2.47;100.00;101354.78;5048710;28;21003;-74
2022/02/13 04:52:14;;;;;;;14.20;7.13;;;;;;;-2.44;100.00;101354.91;5044553;28;20467;-74
2022/02/13 04:54:40;;;;;;;11.97;7.43;;;;;;;-2.44;100.00;101359.16;5039578;28;20834;-74
2022/02/13 04:57:08;;;;;;;13.97;8.10;;;;;;;-2.36;100.00;101362.84;5048790;28;20995;-74
2022/02/13 04:59:37;;;;;;;13.83;8.13;;;;;;;-2.31;100.00;101358.78;5044797;28;20910;-74
2022/02/13 05:02:04;;;;;;;13.73;7.73;;;;;;;-2.31;100.00;101359.66;5045621;28;20943;-74
2022/02/13 05:04:30;;;;;;;12.23;8.17;;;;;;;-2.35;100.00;101346.72;5044368;28;20470;-74
2022/02/13 05:06:57;;;;;;;12.30;7.67;;;;;;;-2.34;100.00;101346.78;5042245;28;20478;-74
2022/02/13 05:09:23;;;;;;;12.27;7.53;;;;;;;-2.31;100.00;101338.34;5039289;28;20479;-74
2022/02/13 05:11:49;;;;;;;11.67;7.27;;;;;;;-2.31;100.00;101338.34;5042652;28;20207;-74
2022/02/13 05:14:17;;;;;;;10.97;6.90;;;;;;;-2.31;100.00;101331.56;5044362;28;20452;-74
2022/02/13 05:16:44;;;;;;;11.63;7.53;;;;;;;-2.28;100.00;101325.69;5039306;28;20211;-74
2022/02/13 05:19:10;;;;;;;13.30;7.43;;;;;;;-2.17;100.00;101333.75;5044725;28;20482;-75
2022/02/13 05:21:36;;;;;;;14.30;7.53;;;;;;;-2.13;100.00;101325.38;5042466;28;20476;-75
2022/02/13 05:24:03;;;;;;;10.60;7.10;;;;;;;-2.12;100.00;101319.47;5042236;28;20205;-74
2022/02/13 05:26:29;;;;;;;11.63;7.00;;;;;;;-2.06;100.00;101322.25;5037974;28;20492;-74
2022/02/13 05:28:56;;;;;;;13.10;6.80;;;;;;;-1.98;100.00;101314.88;5045760;28;20446;-74
2022/02/13 05:31:29;;;;;;;13.00;6.53;;;;;;;-2.00;100.00;101330.16;5042021;28;20619;-74
2022/02/13 05:33:56;;;;;;;12.17;7.00;;;;;;;-2.03;100.00;101326.59;5047258;28;20506;-74
2022/02/13 05:36:22;;;;;;;10.43;6.67;;;;;;;-2.06;100.00;101322.25;5043374;28;20668;-74
2022/02/13 05:38:49;;;;;;;10.73;6.70;;;;;;;-2.01;100.00;101320.72;5043132;28;20462;-74
2022/02/13 05:41:15;;;;;;;12.33;6.67;;;;;;;-1.99;100.00;101311.41;5048142;28;20446;-74
2022/02/13 05:43:42;;;;;;;12.83;6.80;;;;;;;-2.01;100.00;101314.75;5046870;28;20468;-74
2022/02/13 05:46:08;;;;;;;10.70;6.57;;;;;;;-2.05;100.00;101310.34;5043508;28;20205;-74
2022/02/13 05:48:37;;;;;;;10.13;6.23;;;;;;;-2.09;100.00;101306.81;5042413;28;20469;-74
2022/02/13 05:51:04;;;;;;;13.13;7.20;;;;;;;-2.13;100.00;101310.94;5044239;28;20195;-74
2022/02/13 05:53:30;;;;;;;10.40;5.83;;;;;;;-2.08;100.00;101305.13;5034132;28;20208;-74
2022/02/13 05:55:57;;;;;;;9.97;6.50;;;;;;;-2.11;100.00;101299.09;5039486;28;20206;-74
2022/02/13 05:58:23;;;;;;;9.73;6.17;;;;;;;-2.15;100.00;101304.88;5046379;28;20580;-74
2022/02/13 06:00:50;;;;;;;11.33;6.60;;;;;;;-2.19;100.00;101309.84;5046822;28;20218;-74
2022/02/13 06:03:16;;;;;;;8.90;5.80;;;;;;;-2.20;100.00;101308.97;5038366;28;20466;-74
2022/02/13 06:05:44;;;;;;;9.73;6.33;;;;;;;-2.21;100.00;101303.81;5041778;28;20226;-73
2022/02/13 06:08:11;;;;;;;9.67;6.80;;;;;;;-2.29;100.00;101296.75;5044131;28;21002;-73
2022/02/13 06:10:37;;;;;;;11.30;6.03;;;;;;;-2.30;100.00;101291.56;5042962;28;20587;-74
2022/02/13 06:13:03;;;;;;;9.97;6.73;;;;;;;-2.32;100.00;101293.22;5039131;28;20661;-74
2022/02/13 06:15:30;;;;;;;9.93;6.53;;;;;;;-2.32;100.00;101286.41;5042856;28;20195;-74
2022/02/13 06:17:56;;;;;;;10.70;6.77;;;;;;;-2.30;100.00;101291.56;5042469;28;20242;-74
2022/02/13 06:20:23;;;;;;;9.90;5.83;;;;;;;-2.36;100.00;101288.78;5041768;28;20787;-73
2022/02/13 06:22:50;;;;;;;10.50;6.60;;;;;;;-2.38;100.00;101285.31;5046495;28;20449;-74
2022/02/13 06:25:17;;;;;;;10.23;6.70;;;;;;;-2.37;100.00;101293.03;5040128;28;20197;-74
2022/02/13 06:27:43;;;;;;;11.97;6.87;;;;;;;-2.41;100.00;101288.63;5042308;28;20223;-74
2022/02/13 06:30:11;;;;;;;11.17;7.03;;;;;;;-2.44;100.00;101273.19;5042721;28;20481;-74
2022/02/13 06:32:37;;;;;;;11.03;6.27;;;;;;;-2.45;100.00;101275.66;5045016;28;20446;-74
2022/02/13 06:35:04;;;;;;;10.67;6.50;;;;;;;-2.40;100.00;101269.91;5037751;28;20480;-74
2022/02/13 06:37:31;;;;;;;11.30;6.50;;;;;;;-2.41;100.00;101265.63;5042529;28;20455;-74
2022/02/13 06:39:59;;;;;;;11.53;7.00;;;;;;;-2.44;100.00;101264.66;5038470;28;20560;-74
2022/02/13 06:42:26;;;;;;;11.30;6.50;;;;;;;-2.43;100.00;101274.03;5042218;28;20465;-74
2022/02/13 06:44:53;;;;;;;11.73;6.70;;;;;;;-2.49;100.00;101275.53;5040608;28;20467;-75
2022/02/13 06:47:19;;;;;;;11.37;7.87;;;;;;;-2.46;100.00;101274.81;5041672;28;20481;-74
2022/02/13 06:49:46;;;;;;;27.70;13.13;;;;;;;-2.45;100.00;101271.44;5038323;28;20544;-74
2022/02/13 06:52:12;;;;;;;33.77;16.30;;;;;;;-2.44;100.00;101257.00;5037851;28;20838;-74
2022/02/13 06:54:38;;;;;;;27.70;14.93;;;;;;;-2.40;100.00;101264.81;5040731;28;20464;-74
2022/02/13 06:57:06;;;;;;;66.27;30.97;;;;;;;-2.34;100.00;101261.59;5042412;28;20461;-75
2022/02/13 06:59:32;;;;;;;27.30;14.93;;;;;;;-2.31;100.00;101262.56;5047570;28;20985;-74
2022/02/13 07:01:59;;;;;;;23.83;14.93;;;;;;;-2.29;100.00;101265.19;5050289;28;20481;-74
2022/02/13 07:04:25;;;;;;;19.60;11.33;;;;;;;-2.25;100.00;101268.72;5041026;28;20461;-74
2022/02/13 07:06:52;;;;;;;29.67;15.77;;;;;;;-2.25;100.00;101261.06;5039588;28;20505;-75
2022/02/13 07:09:19;;;;;;;18.80;10.00;;;;;;;-2.21;100.00;101255.28;5045609;28;20223;-74
2022/02/13 07:11:45;;;;;;;13.70;8.40;;;;;;;-2.17;100.00;101263.09;5038931;28;20475;-75
2022/02/13 07:14:13;;;;;;;10.43;7.03;;;;;;;-2.13;100.00;101257.28;5039190;28;20330;-75
2022/02/13 07:16:39;;;;;;;13.93;8.33;;;;;;;-2.10;100.00;101249.72;5038381;28;20208;-75
2022/02/13 07:19:06;;;;;;;12.57;8.57;;;;;;;-2.01;100.00;101250.84;5040028;28;20215;-75
2022/02/13 07:21:32;;;;;;;12.40;8.17;;;;;;;-1.99;100.00;101251.78;5041753;28;20202;-75
2022/02/13 07:23:59;;;;;;;11.93;7.93;;;;;;;-1.91;100.00;101242.69;5036061;28;20351;-75
2022/02/13 07:26:25;;;;;;;16.63;8.63;;;;;;;-1.84;100.00;101247.19;5043429;28;20221;-75
2022/02/13 07:29:00;;;;;;;14.20;8.03;;;;;;;-1.78;100.00;101249.09;5037746;28;20204;-74
2022/02/13 07:31:29;;;;;;;17.00;8.27;;;;;;;-1.77;100.00;101251.72;5044792;28;20463;-74
2022/02/13 07:33:56;;;;;;;17.83;8.90;;;;;;;-1.77;100.00;101254.25;5042211;28;20191;-74
2022/02/13 07:36:23;;;;;;;21.80;9.53;;;;;;;-1.70;100.00;101246.81;5034871;28;20191;-75
2022/02/13 07:38:49;;;;;;;31.27;11.30;;;;;;;-1.63;100.00;101252.19;5038332;28;20203;-74
2022/02/13 07:41:16;;;;;;;40.60;13.23;;;;;;;-1.49;100.00;101250.09;5045485;28;20941;-75
2022/02/13 07:43:42;;;;;;;38.20;13.70;;;;;;;-1.44;100.00;101243.44;5043654;28;20214;-74
2022/02/13 07:46:09;;;;;;;26.97;10.87;;;;;;;-1.37;100.00;101242.81;5042807;28;20218;-74
2022/02/13 07:48:37;;;;;;;22.13;9.83;;;;;;;-1.28;100.00;101239.69;5040882;28;20199;-74
2022/02/13 07:51:04;;;;;;;21.63;8.77;;;;;;;-1.18;100.00;101231.47;5041385;28;20478;-74
2022/02/13 07:53:31;;;;;;;19.43;9.10;;;;;;;-1.15;100.00;101225.56;5037286;28;20754;-74
2022/02/13 07:55:57;;;;;;;18.77;8.93;;;;;;;-1.08;100.00;101226.63;5039716;28;20270;-73
2022/02/13 07:58:24;;;;;;;19.57;9.13;;;;;;;-1.06;100.00;101230.09;5036295;28;20200;-74
2022/02/13 08:00:50;;;;;;;20.27;9.73;;;;;;;-1.00;100.00;101218.38;5037905;28;20607;-74
2022/02/13 08:03:17;;;;;;;24.03;10.20;;;;;;;-0.97;100.00;101215.91;5040541;28;20567;-74
2022/02/13 08:05:45;;;;;;;20.00;9.33;;;;;;;-0.84;100.00;101217.16;5030990;28;20243;-74
2022/02/13 08:08:11;;;;;;;18.53;9.07;;;;;;;-0.71;100.00;101220.06;5020679;28;20216;-74
2022/02/13 08:10:40;;;;;;;20.57;9.70;;;;;;;-0.68;100.00;101220.16;5021543;28;20735;-74
2022/02/13 08:13:06;;;;;;;19.17;9.57;;;;;;;-0.60;100.00;101222.13;5019237;28;20200;-74
2022/02/13 08:15:33;;;;;;;17.00;9.30;;;;;;;-0.57;100.00;101221.34;5018613;28;20204;-74
2022/02/13 08:18:06;;;;;;;20.57;8.70;;;;;;;-0.56;100.00;101217.97;5016450;28;20672;-74
2022/02/13 08:20:33;;;;;;;16.00;7.63;;;;;;;-0.44;100.00;101227.66;5020274;28;20704;-74
2022/02/13 08:23:01;;;;;;;14.03;6.67;;;;;;;-0.39;100.00;101215.84;5020508;28;20212;-74
2022/02/13 08:25:27;;;;;;;14.83;7.37;;;;;;;-0.34;100.00;101206.59;5020992;28;20597;-74
2022/02/13 08:27:53;;;;;;;9.23;6.33;;;;;;;-0.27;100.00;101208.50;5021061;28;20235;-74
2022/02/13 08:30:20;;;;;;;12.67;6.23;;;;;;;-0.17;100.00;101217.31;5020342;28;20696;-74
2022/02/13 08:32:46;;;;;;;15.20;7.63;;;;;;;-0.07;98.75;101214.19;5018860;28;20211;-74
2022/02/13 08:35:13;;;;;;;15.77;8.37;;;;;;;-0.04;99.18;101210.81;5017092;28;20629;-74
2022/02/13 08:37:40;;;;;;;14.13;7.50;;;;;;;-0.04;99.10;101214.25;5019339;28;20217;-74
2022/02/13 08:40:09;;;;;;;10.73;6.40;;;;;;;0.02;99.07;101221.25;5018456;28;20216;-74
2022/02/13 08:42:36;;;;;;;11.93;6.50;;;;;;;0.09;98.16;101205.22;5022789;28;20694;-74
2022/02/13 08:45:03;;;;;;;8.83;5.93;;;;;;;0.17;97.19;101208.81;5022808;28;20227;-74
2022/02/13 08:47:29;;;;;;;10.67;6.10;;;;;;;0.26;96.29;101202.19;5025111;28;20381;-73
2022/02/13 08:49:56;;;;;;;10.37;6.17;;;;;;;0.35;96.30;101203.31;5023434;28;20248;-74
2022/02/13 08:52:22;;;;;;;9.83;5.27;;;;;;;0.45;94.57;101200.97;5020866;28;20685;-73
2022/02/13 08:54:49;;;;;;;9.17;5.90;;;;;;;0.49;95.50;101206.22;5023268;28;20661;-74
2022/02/13 08:57:17;;;;;;;7.70;4.97;;;;;;;0.57;94.98;101202.13;5023159;28;20200;-74
2022/02/13 08:59:43;;;;;;;8.17;5.13;;;;;;;0.66;94.10;101203.19;5024399;28;20239;-75
2022/02/13 09:02:10;;;;;;;9.40;5.23;;;;;;;0.73;91.73;101210.19;5023729;28;20196;-74
2022/02/13 09:04:36;;;;;;;6.50;4.90;;;;;;;0.79;92.31;101215.44;5025029;28;20200;-75
2022/02/13 09:07:03;;;;;;;8.43;5.00;;;;;;;0.87;91.83;101206.22;5024406;28;20224;-74
2022/02/13 09:09:32;;;;;;;5.70;4.80;;;;;;;0.92;91.39;101212.34;5023333;28;20809;-74
2022/02/13 09:11:59;;;;;;;7.67;5.20;;;;;;;0.98;91.48;101211.59;5020233;28;20200;-74
2022/02/13 09:14:27;;;;;;;7.80;5.33;;;;;;;1.09;89.88;101205.03;5019540;28;20230;-75
2022/02/13 09:16:53;;;;;;;7.13;5.27;;;;;;;1.17;89.30;101210.31;5024984;28;20239;-74
2022/02/13 09:19:21;;;;;;;6.73;5.20;;;;;;;1.23;88.64;101197.63;5019673;28;20228;-74
2022/02/13 09:21:51;;;;;;;6.60;4.70;;;;;;;1.28;88.38;101201.13;5016397;28;20215;-74
2022/02/13 09:24:18;;;;;;;8.93;5.03;;;;;;;1.36;87.76;101190.16;5019360;28;20191;-74
2022/02/13 09:26:44;;;;;;;6.53;4.77;;;;;;;1.42;87.79;101191.13;5024902;28;20299;-74
2022/02/13 09:29:11;;;;;;;8.00;4.60;;;;;;;1.50;88.49;101184.47;5021184;28;20224;-74
2022/02/13 09:31:38;;;;;;;7.30;5.00;;;;;;;1.59;86.67;101188.91;5025570;28;20204;-74
2022/02/13 09:34:05;;;;;;;10.77;5.03;;;;;;;1.68;85.64;101188.22;5019246;28;20192;-74
2022/02/13 09:36:31;;;;;;;7.90;4.60;;;;;;;1.70;86.88;101178.84;5018328;28;20204;-74
2022/02/13 09:38:57;;;;;;;9.93;5.30;;;;;;;1.75;86.35;101173.78;5019517;28;20711;-74
2022/02/13 09:41:24;;;;;;;7.40;4.90;;;;;;;1.82;85.19;101180.78;5019789;28;20195;-74
2022/02/13 09:43:54;;;;;;;9.00;5.40;;;;;;;1.92;84.26;101185.25;5024935;28;20310;-74
2022/02/13 09:46:22;;;;;;;7.97;5.67;;;;;;;2.00;82.97;101198.25;5011372;28;20199;-74
2022/02/13 09:48:52;;;;;;;9.47;5.73;;;;;;;2.04;82.43;101184.59;5022665;28;20304;-75
2022/02/13 09:51:19;;;;;;;7.37;5.33;;;;;;;2.04;82.38;101187.16;5016082;28;20204;-74
2022/02/13 09:53:45;;;;;;;6.83;4.50;;;;;;;2.06;81.98;101186.38;5018081;28;20200;-74
2022/02/13 09:56:12;;;;;;;10.07;4.80;;;;;;;2.05;82.29;101184.63;5020378;28;20198;-74
2022/02/13 09:58:39;;;;;;;6.73;4.50;;;;;;;2.06;82.21;101181.22;5016952;28;20197;-75
2022/02/13 10:01:07;;;;;;;6.10;4.60;;;;;;;2.16;80.90;101181.38;5015930;28;20218;-74
2022/02/13 10:03:35;;;;;;;6.53;4.10;;;;;;;2.18;80.66;101178.00;5024364;28;20204;-74
2022/02/13 10:06:20;;;;;;;8.60;4.37;;;;;;;2.24;80.06;101172.94;5016305;28;20203;-74
2022/02/13 10:08:48;;;;;;;7.63;4.23;;;;;;;2.30;80.40;101172.19;5011344;28;20216;-74
2022/02/13 10:11:18;;;;;;;7.10;4.80;;;;;;;2.33;80.95;101163.66;5019314;28;20569;-75
2022/02/13 10:13:47;;;;;;;6.57;4.70;;;;;;;2.40;80.82;101156.03;5016288;28;20302;-75
2022/02/13 10:16:19;;;;;;;5.47;4.10;;;;;;;2.47;80.62;101157.88;5019619;28;20215;-75
2022/02/13 10:18:47;;;;;;;6.90;4.40;;;;;;;2.54;78.87;101147.69;5016812;28;20208;-75
2022/02/13 10:21:29;;;;;;;5.37;4.07;;;;;;;2.63;80.04;101151.25;5041788;28;20201;-76
2022/02/13 10:24:18;;;;;;;8.80;4.03;;;;;;;2.72;78.77;101134.22;5018962;28;20287;-75
2022/02/13 10:26:46;;;;;;;6.07;3.87;;;;;;;2.81;78.84;101142.94;5012942;28;20213;-73
2022/02/13 10:29:13;;;;;;;8.80;4.27;;;;;;;2.93;77.69;101129.34;5028030;28;20678;-74
2022/02/13 10:31:39;;;;;;;7.77;4.20;;;;;;;2.99;76.30;101138.84;5011684;28;20216;-73
2022/02/13 10:34:06;;;;;;;5.10;4.50;;;;;;;3.02;74.13;101141.47;5018738;28;20219;-74
2022/02/13 10:36:40;;;;;;;7.30;4.10;;;;;;;3.07;74.90;101133.81;5019831;28;20206;-74
2022/02/13 10:39:22;;;;;;;5.83;3.93;;;;;;;3.15;73.45;101134.75;5019616;28;20219;-74
2022/02/13 10:41:49;;;;;;;8.03;3.83;;;;;;;3.27;72.79;101139.22;5015330;28;20209;-74
2022/02/13 10:44:16;;;;;;;7.03;3.70;;;;;;;3.30;73.09;101129.81;5019436;28;20204;-74
2022/02/13 10:46:44;;;;;;;5.80;4.10;;;;;;;3.36;73.65;101134.16;5019563;28;20275;-74
2022/02/13 10:49:13;;;;;;;7.27;3.70;;;;;;;3.41;73.71;101129.94;5019707;28;20216;-74
2022/02/13 10:51:41;;;;;;;5.57;3.50;;;;;;;3.49;72.39;101124.88;5017880;28;20213;-73
2022/02/13 10:54:08;;;;;;;6.60;4.03;;;;;;;3.59;72.57;101126.72;5020773;28;20207;-74
2022/02/13 10:56:35;;;;;;;4.53;3.67;;;;;;;3.59;72.29;101118.97;5016981;28;20196;-73
2022/02/13 10:59:02;;;;;;;5.27;3.40;;;;;;;3.67;69.86;101125.06;5022361;28;20212;-73
2022/02/13 11:01:29;;;;;;;3.37;3.07;;;;;;;3.72;68.29;101123.38;5019089;28;20825;-73
2022/02/13 11:04:03;;;;;;;6.70;3.17;;;;;;;3.79;69.24;101119.16;5013745;28;20285;-74
2022/02/13 11:06:31;;;;;;;5.43;3.20;;;;;;;3.86;70.60;101118.38;5014314;28;20207;-74
2022/02/13 11:09:07;;;;;;;6.37;3.60;;;;;;;3.97;66.95;101126.19;5022067;28;20227;-74
2022/02/13 11:11:34;;;;;;;5.23;3.17;;;;;;;4.00;65.66;101120.22;5019451;28;20207;-74
2022/02/13 11:14:01;;;;;;;4.50;3.10;;;;;;;4.01;67.12;101112.50;5018540;28;20218;-74